sensor_id;sensor_type;location;lat;lon;timestamp;P1;durP1;ratioP1;P2;durP2;ratioP2
73733;SDS011;62039;50.000;9.064;2024-03-08T00:02:25;8.93;;;7.73;;
73733;SDS011;62039;50.000;9.064;2024-03-08T00:04:52;11.37;;;9.30;;
73733;SDS011;62039;50.000;9.064;2024-03-08T00:07:19;8.90;;;7.90;;
73733;SDS011;62039;50.000;9.064;2024-03-08T00:09:45;8.73;;;7.80;;
73733;SDS011;62039;50.000;9.064;2024-03-08T00:12:12;11.10;;;8.83;;
73733;SDS011;62039;50.000;9.064;2024-03-08T00:14:39;10.77;;;8.20;;
73733;SDS011;62039;50.000;9.064;2024-03-08T00:17:06;9.27;;;8.03;;
73733;SDS011;62039;50.000;9.064;2024-03-08T00:19:36;10.13;;;8.10;;
73733;SDS011;62039;50.000;9.064;2024-03-08T00:22:03;9.90;;;7.83;;
73733;SDS011;62039;50.000;9.064;2024-03-08T00:24:30;8.53;;;7.37;;
73733;SDS011;62039;50.000;9.064;2024-03-08T00:26:57;7.60;;;6.80;;
73733;SDS011;62039;50.000;9.064;2024-03-08T00:29:24;8.97;;;7.53;;
73733;SDS011;62039;50.000;9.064;2024-03-08T00:31:51;9.20;;;7.60;;
73733;SDS011;62039;50.000;9.064;2024-03-08T00:34:18;8.33;;;7.43;;
73733;SDS011;62039;50.000;9.064;2024-03-08T00:36:47;8.97;;;7.10;;
73733;SDS011;62039;50.000;9.064;2024-03-08T00:39:14;9.60;;;8.10;;
73733;SDS011;62039;50.000;9.064;2024-03-08T00:41:41;9.93;;;8.50;;
73733;SDS011;62039;50.000;9.064;2024-03-08T00:44:08;9.97;;;8.67;;
73733;SDS011;62039;50.000;9.064;2024-03-08T00:46:35;10.03;;;8.13;;
73733;SDS011;62039;50.000;9.064;2024-03-08T00:49:02;10.83;;;7.90;;
73733;SDS011;62039;50.000;9.064;2024-03-08T00:51:29;9.07;;;8.10;;
73733;SDS011;62039;50.000;9.064;2024-03-08T00:53:58;9.10;;;7.50;;
73733;SDS011;62039;50.000;9.064;2024-03-08T00:56:25;9.13;;;8.10;;
73733;SDS011;62039;50.000;9.064;2024-03-08T00:58:52;8.47;;;6.53;;
73733;SDS011;62039;50.000;9.064;2024-03-08T01:01:19;8.53;;;7.33;;
73733;SDS011;62039;50.000;9.064;2024-03-08T01:03:46;11.20;;;7.97;;
73733;SDS011;62039;50.000;9.064;2024-03-08T01:06:13;11.40;;;8.33;;
73733;SDS011;62039;50.000;9.064;2024-03-08T01:08:40;9.47;;;8.30;;
73733;SDS011;62039;50.000;9.064;2024-03-08T01:11:10;9.10;;;7.80;;
73733;SDS011;62039;50.000;9.064;2024-03-08T01:13:39;9.27;;;8.00;;
73733;SDS011;62039;50.000;9.064;2024-03-08T01:16:06;11.60;;;8.67;;
73733;SDS011;62039;50.000;9.064;2024-03-08T01:18:33;10.17;;;8.13;;
73733;SDS011;62039;50.000;9.064;2024-03-08T01:21:00;10.57;;;8.60;;
73733;SDS011;62039;50.000;9.064;2024-03-08T01:23:27;9.20;;;8.10;;
73733;SDS011;62039;50.000;9.064;2024-03-08T01:25:54;11.33;;;9.33;;
73733;SDS011;62039;50.000;9.064;2024-03-08T01:28:23;10.40;;;9.13;;
73733;SDS011;62039;50.000;9.064;2024-03-08T01:30:50;10.10;;;9.00;;
73733;SDS011;62039;50.000;9.064;2024-03-08T01:33:17;10.90;;;8.93;;
73733;SDS011;62039;50.000;9.064;2024-03-08T01:35:44;11.10;;;9.23;;
73733;SDS011;62039;50.000;9.064;2024-03-08T01:38:11;9.63;;;8.13;;
73733;SDS011;62039;50.000;9.064;2024-03-08T01:40:38;9.67;;;8.13;;
73733;SDS011;62039;50.000;9.064;2024-03-08T01:43:18;11.30;;;9.47;;
73733;SDS011;62039;50.000;9.064;2024-03-08T01:45:48;10.73;;;8.97;;
73733;SDS011;62039;50.000;9.064;2024-03-08T01:48:15;10.40;;;8.40;;
73733;SDS011;62039;50.000;9.064;2024-03-08T01:50:43;8.87;;;7.83;;
73733;SDS011;62039;50.000;9.064;2024-03-08T01:53:11;8.87;;;7.93;;
73733;SDS011;62039;50.000;9.064;2024-03-08T01:55:39;10.20;;;9.00;;
73733;SDS011;62039;50.000;9.064;2024-03-08T01:58:06;11.33;;;8.43;;
73733;SDS011;62039;50.000;9.064;2024-03-08T02:00:35;10.87;;;8.43;;
73733;SDS011;62039;50.000;9.064;2024-03-08T02:03:07;10.63;;;8.57;;
73733;SDS011;62039;50.000;9.064;2024-03-08T02:05:34;9.67;;;8.17;;
73733;SDS011;62039;50.000;9.064;2024-03-08T02:08:02;8.97;;;7.73;;
73733;SDS011;62039;50.000;9.064;2024-03-08T02:10:29;9.30;;;7.87;;
73733;SDS011;62039;50.000;9.064;2024-03-08T02:12:56;10.97;;;8.97;;
73733;SDS011;62039;50.000;9.064;2024-03-08T02:15:23;11.30;;;8.77;;
73733;SDS011;62039;50.000;9.064;2024-03-08T02:17:50;12.40;;;8.90;;
73733;SDS011;62039;50.000;9.064;2024-03-08T02:20:19;9.67;;;8.67;;
73733;SDS011;62039;50.000;9.064;2024-03-08T02:22:49;10.73;;;9.23;;
73733;SDS011;62039;50.000;9.064;2024-03-08T02:25:16;13.73;;;9.23;;
73733;SDS011;62039;50.000;9.064;2024-03-08T02:27:45;12.77;;;10.00;;
73733;SDS011;62039;50.000;9.064;2024-03-08T02:30:12;11.00;;;9.00;;
73733;SDS011;62039;50.000;9.064;2024-03-08T02:32:39;10.53;;;9.43;;
73733;SDS011;62039;50.000;9.064;2024-03-08T02:35:06;10.10;;;9.03;;
73733;SDS011;62039;50.000;9.064;2024-03-08T02:37:33;12.53;;;10.13;;
73733;SDS011;62039;50.000;9.064;2024-03-08T02:40:03;11.97;;;9.20;;
73733;SDS011;62039;50.000;9.064;2024-03-08T02:42:31;10.30;;;9.10;;
73733;SDS011;62039;50.000;9.064;2024-03-08T02:44:58;12.47;;;9.50;;
73733;SDS011;62039;50.000;9.064;2024-03-08T02:47:25;11.90;;;9.60;;
73733;SDS011;62039;50.000;9.064;2024-03-08T02:49:53;12.57;;;10.63;;
73733;SDS011;62039;50.000;9.064;2024-03-08T02:52:20;12.63;;;9.67;;
73733;SDS011;62039;50.000;9.064;2024-03-08T02:54:47;11.60;;;9.33;;
73733;SDS011;62039;50.000;9.064;2024-03-08T02:57:17;13.40;;;9.67;;
73733;SDS011;62039;50.000;9.064;2024-03-08T02:59:44;11.60;;;8.93;;
73733;SDS011;62039;50.000;9.064;2024-03-08T03:02:11;13.17;;;10.10;;
73733;SDS011;62039;50.000;9.064;2024-03-08T03:04:39;10.03;;;8.77;;
73733;SDS011;62039;50.000;9.064;2024-03-08T03:07:06;11.17;;;9.50;;
73733;SDS011;62039;50.000;9.064;2024-03-08T03:09:33;12.20;;;9.90;;
73733;SDS011;62039;50.000;9.064;2024-03-08T03:11:59;13.40;;;10.83;;
73733;SDS011;62039;50.000;9.064;2024-03-08T03:14:29;11.87;;;9.60;;
73733;SDS011;62039;50.000;9.064;2024-03-08T03:16:56;12.57;;;9.70;;
73733;SDS011;62039;50.000;9.064;2024-03-08T03:19:23;11.93;;;9.67;;
73733;SDS011;62039;50.000;9.064;2024-03-08T03:21:50;10.30;;;9.00;;
73733;SDS011;62039;50.000;9.064;2024-03-08T03:24:17;13.17;;;10.83;;
73733;SDS011;62039;50.000;9.064;2024-03-08T03:26:44;12.30;;;10.67;;
73733;SDS011;62039;50.000;9.064;2024-03-08T03:29:11;13.77;;;10.37;;
73733;SDS011;62039;50.000;9.064;2024-03-08T03:31:40;13.77;;;11.03;;
73733;SDS011;62039;50.000;9.064;2024-03-08T03:34:07;14.07;;;11.07;;
73733;SDS011;62039;50.000;9.064;2024-03-08T03:36:34;13.10;;;10.33;;
73733;SDS011;62039;50.000;9.064;2024-03-08T03:39:01;12.77;;;10.30;;
73733;SDS011;62039;50.000;9.064;2024-03-08T03:41:28;12.10;;;9.77;;
73733;SDS011;62039;50.000;9.064;2024-03-08T03:43:55;14.83;;;10.93;;
73733;SDS011;62039;50.000;9.064;2024-03-08T03:46:22;11.27;;;9.87;;
73733;SDS011;62039;50.000;9.064;2024-03-08T03:48:51;12.40;;;10.17;;
73733;SDS011;62039;50.000;9.064;2024-03-08T03:51:18;13.33;;;10.17;;
73733;SDS011;62039;50.000;9.064;2024-03-08T03:53:45;12.60;;;10.37;;
73733;SDS011;62039;50.000;9.064;2024-03-08T03:56:12;13.10;;;10.73;;
73733;SDS011;62039;50.000;9.064;2024-03-08T03:58:39;13.57;;;10.53;;
73733;SDS011;62039;50.000;9.064;2024-03-08T04:01:06;13.63;;;10.50;;
73733;SDS011;62039;50.000;9.064;2024-03-08T04:03:33;12.83;;;10.57;;
73733;SDS011;62039;50.000;9.064;2024-03-08T04:06:03;14.27;;;10.90;;
73733;SDS011;62039;50.000;9.064;2024-03-08T04:08:30;15.10;;;11.63;;
73733;SDS011;62039;50.000;9.064;2024-03-08T04:10:57;13.10;;;11.00;;
73733;SDS011;62039;50.000;9.064;2024-03-08T04:13:24;14.17;;;10.63;;
73733;SDS011;62039;50.000;9.064;2024-03-08T04:15:51;12.07;;;10.33;;
73733;SDS011;62039;50.000;9.064;2024-03-08T04:18:18;13.87;;;11.27;;
73733;SDS011;62039;50.000;9.064;2024-03-08T04:20:45;11.60;;;10.27;;
73733;SDS011;62039;50.000;9.064;2024-03-08T04:23:14;12.50;;;10.40;;
73733;SDS011;62039;50.000;9.064;2024-03-08T04:25:44;13.30;;;10.23;;
73733;SDS011;62039;50.000;9.064;2024-03-08T04:28:11;14.70;;;11.47;;
73733;SDS011;62039;50.000;9.064;2024-03-08T04:30:38;11.67;;;9.67;;
73733;SDS011;62039;50.000;9.064;2024-03-08T04:33:05;11.33;;;9.50;;
73733;SDS011;62039;50.000;9.064;2024-03-08T04:35:32;11.90;;;9.97;;
73733;SDS011;62039;50.000;9.064;2024-03-08T04:37:59;14.67;;;12.60;;
73733;SDS011;62039;50.000;9.064;2024-03-08T04:40:29;15.03;;;12.17;;
73733;SDS011;62039;50.000;9.064;2024-03-08T04:42:56;13.07;;;11.00;;
73733;SDS011;62039;50.000;9.064;2024-03-08T04:45:23;12.47;;;10.73;;
73733;SDS011;62039;50.000;9.064;2024-03-08T04:47:50;13.73;;;11.33;;
73733;SDS011;62039;50.000;9.064;2024-03-08T04:50:17;12.20;;;10.40;;
73733;SDS011;62039;50.000;9.064;2024-03-08T04:52:44;11.97;;;10.33;;
73733;SDS011;62039;50.000;9.064;2024-03-08T04:55:11;11.73;;;10.10;;
73733;SDS011;62039;50.000;9.064;2024-03-08T04:57:41;12.97;;;11.23;;
73733;SDS011;62039;50.000;9.064;2024-03-08T05:00:08;11.80;;;10.27;;
73733;SDS011;62039;50.000;9.064;2024-03-08T05:02:36;12.83;;;10.70;;
73733;SDS011;62039;50.000;9.064;2024-03-08T05:05:03;11.80;;;9.87;;
73733;SDS011;62039;50.000;9.064;2024-03-08T05:07:31;12.73;;;10.17;;
73733;SDS011;62039;50.000;9.064;2024-03-08T05:09:58;13.23;;;11.43;;
73733;SDS011;62039;50.000;9.064;2024-03-08T05:12:25;12.17;;;10.33;;
73733;SDS011;62039;50.000;9.064;2024-03-08T05:14:54;15.50;;;11.20;;
73733;SDS011;62039;50.000;9.064;2024-03-08T05:17:21;13.80;;;11.40;;
73733;SDS011;62039;50.000;9.064;2024-03-08T05:19:48;14.40;;;11.40;;
73733;SDS011;62039;50.000;9.064;2024-03-08T05:22:15;16.97;;;12.63;;
73733;SDS011;62039;50.000;9.064;2024-03-08T05:24:42;12.87;;;10.87;;
73733;SDS011;62039;50.000;9.064;2024-03-08T05:27:09;14.53;;;10.83;;
73733;SDS011;62039;50.000;9.064;2024-03-08T05:29:36;16.73;;;12.77;;
73733;SDS011;62039;50.000;9.064;2024-03-08T05:32:06;14.63;;;11.27;;
73733;SDS011;62039;50.000;9.064;2024-03-08T05:34:33;16.83;;;12.70;;
73733;SDS011;62039;50.000;9.064;2024-03-08T05:37:00;14.83;;;12.10;;
73733;SDS011;62039;50.000;9.064;2024-03-08T05:39:27;15.53;;;12.30;;
73733;SDS011;62039;50.000;9.064;2024-03-08T05:41:54;12.67;;;11.20;;
73733;SDS011;62039;50.000;9.064;2024-03-08T05:44:21;13.33;;;10.60;;
73733;SDS011;62039;50.000;9.064;2024-03-08T05:46:48;14.57;;;11.83;;
73733;SDS011;62039;50.000;9.064;2024-03-08T05:49:18;11.93;;;10.60;;
73733;SDS011;62039;50.000;9.064;2024-03-08T05:51:45;16.07;;;12.27;;
73733;SDS011;62039;50.000;9.064;2024-03-08T05:54:12;14.97;;;11.77;;
73733;SDS011;62039;50.000;9.064;2024-03-08T05:56:43;15.43;;;11.23;;
73733;SDS011;62039;50.000;9.064;2024-03-08T05:59:11;16.57;;;13.33;;
73733;SDS011;62039;50.000;9.064;2024-03-08T06:01:39;13.77;;;11.20;;
73733;SDS011;62039;50.000;9.064;2024-03-08T06:04:06;13.37;;;11.37;;
73733;SDS011;62039;50.000;9.064;2024-03-08T06:06:35;16.07;;;12.60;;
73733;SDS011;62039;50.000;9.064;2024-03-08T06:09:02;13.87;;;11.23;;
73733;SDS011;62039;50.000;9.064;2024-03-08T06:11:29;14.73;;;11.47;;
73733;SDS011;62039;50.000;9.064;2024-03-08T06:13:56;14.17;;;10.97;;
73733;SDS011;62039;50.000;9.064;2024-03-08T06:16:23;13.03;;;10.67;;
73733;SDS011;62039;50.000;9.064;2024-03-08T06:18:50;15.53;;;12.23;;
73733;SDS011;62039;50.000;9.064;2024-03-08T06:21:17;14.57;;;12.17;;
73733;SDS011;62039;50.000;9.064;2024-03-08T06:23:47;13.60;;;10.93;;
73733;SDS011;62039;50.000;9.064;2024-03-08T06:26:14;14.83;;;11.63;;
73733;SDS011;62039;50.000;9.064;2024-03-08T06:28:41;15.83;;;11.70;;
73733;SDS011;62039;50.000;9.064;2024-03-08T06:31:08;16.20;;;13.47;;
73733;SDS011;62039;50.000;9.064;2024-03-08T06:33:34;15.70;;;11.97;;
73733;SDS011;62039;50.000;9.064;2024-03-08T06:36:02;15.47;;;12.00;;
73733;SDS011;62039;50.000;9.064;2024-03-08T06:38:29;14.87;;;11.87;;
73733;SDS011;62039;50.000;9.064;2024-03-08T06:40:59;14.57;;;11.73;;
73733;SDS011;62039;50.000;9.064;2024-03-08T06:43:25;15.50;;;13.13;;
73733;SDS011;62039;50.000;9.064;2024-03-08T06:45:52;16.90;;;13.67;;
73733;SDS011;62039;50.000;9.064;2024-03-08T06:48:19;17.47;;;13.00;;
73733;SDS011;62039;50.000;9.064;2024-03-08T06:50:47;14.93;;;11.93;;
73733;SDS011;62039;50.000;9.064;2024-03-08T06:53:14;15.67;;;12.67;;
73733;SDS011;62039;50.000;9.064;2024-03-08T06:55:44;16.47;;;12.93;;
73733;SDS011;62039;50.000;9.064;2024-03-08T06:58:13;17.00;;;14.03;;
73733;SDS011;62039;50.000;9.064;2024-03-08T07:00:40;14.77;;;11.67;;
73733;SDS011;62039;50.000;9.064;2024-03-08T07:03:07;19.80;;;14.83;;
73733;SDS011;62039;50.000;9.064;2024-03-08T07:05:35;17.30;;;13.93;;
73733;SDS011;62039;50.000;9.064;2024-03-08T07:08:02;17.67;;;14.20;;
73733;SDS011;62039;50.000;9.064;2024-03-08T07:10:29;17.87;;;13.97;;
73733;SDS011;62039;50.000;9.064;2024-03-08T07:12:56;21.27;;;15.63;;
73733;SDS011;62039;50.000;9.064;2024-03-08T07:15:25;16.13;;;13.87;;
73733;SDS011;62039;50.000;9.064;2024-03-08T07:17:52;18.97;;;14.77;;
73733;SDS011;62039;50.000;9.064;2024-03-08T07:20:19;21.27;;;16.03;;
73733;SDS011;62039;50.000;9.064;2024-03-08T07:22:46;18.83;;;15.17;;
73733;SDS011;62039;50.000;9.064;2024-03-08T07:25:14;17.50;;;14.33;;
73733;SDS011;62039;50.000;9.064;2024-03-08T07:27:41;12.37;;;11.07;;
73733;SDS011;62039;50.000;9.064;2024-03-08T07:30:09;18.77;;;14.40;;
73733;SDS011;62039;50.000;9.064;2024-03-08T07:32:39;18.67;;;14.03;;
73733;SDS011;62039;50.000;9.064;2024-03-08T07:35:06;17.53;;;14.37;;
73733;SDS011;62039;50.000;9.064;2024-03-08T07:37:34;19.13;;;15.60;;
73733;SDS011;62039;50.000;9.064;2024-03-08T07:40:00;15.33;;;12.53;;
73733;SDS011;62039;50.000;9.064;2024-03-08T07:42:27;16.57;;;12.90;;
73733;SDS011;62039;50.000;9.064;2024-03-08T07:44:54;15.03;;;12.23;;
73733;SDS011;62039;50.000;9.064;2024-03-08T07:47:21;17.07;;;13.50;;
73733;SDS011;62039;50.000;9.064;2024-03-08T07:49:53;16.67;;;13.70;;
73733;SDS011;62039;50.000;9.064;2024-03-08T07:52:20;15.53;;;12.83;;
73733;SDS011;62039;50.000;9.064;2024-03-08T07:54:47;17.10;;;14.30;;
73733;SDS011;62039;50.000;9.064;2024-03-08T07:57:14;17.33;;;13.03;;
73733;SDS011;62039;50.000;9.064;2024-03-08T07:59:41;17.67;;;13.47;;
73733;SDS011;62039;50.000;9.064;2024-03-08T08:02:08;16.87;;;13.43;;
73733;SDS011;62039;50.000;9.064;2024-03-08T08:04:35;16.07;;;13.30;;
73733;SDS011;62039;50.000;9.064;2024-03-08T08:07:04;16.43;;;13.33;;
73733;SDS011;62039;50.000;9.064;2024-03-08T08:09:31;12.63;;;11.20;;
73733;SDS011;62039;50.000;9.064;2024-03-08T08:11:58;15.77;;;12.83;;
73733;SDS011;62039;50.000;9.064;2024-03-08T08:14:25;14.00;;;12.50;;
73733;SDS011;62039;50.000;9.064;2024-03-08T08:16:52;15.00;;;12.03;;
73733;SDS011;62039;50.000;9.064;2024-03-08T08:19:19;14.27;;;12.00;;
73733;SDS011;62039;50.000;9.064;2024-03-08T08:21:46;15.00;;;12.40;;
73733;SDS011;62039;50.000;9.064;2024-03-08T08:24:16;12.27;;;10.83;;
73733;SDS011;62039;50.000;9.064;2024-03-08T08:26:42;16.37;;;13.63;;
73733;SDS011;62039;50.000;9.064;2024-03-08T08:29:09;15.30;;;12.23;;
73733;SDS011;62039;50.000;9.064;2024-03-08T08:31:37;13.37;;;11.23;;
73733;SDS011;62039;50.000;9.064;2024-03-08T08:34:03;15.93;;;13.73;;
73733;SDS011;62039;50.000;9.064;2024-03-08T08:36:30;15.00;;;12.13;;
73733;SDS011;62039;50.000;9.064;2024-03-08T08:38:57;13.43;;;12.00;;
73733;SDS011;62039;50.000;9.064;2024-03-08T08:41:27;13.67;;;10.93;;
73733;SDS011;62039;50.000;9.064;2024-03-08T08:43:54;12.97;;;10.57;;
73733;SDS011;62039;50.000;9.064;2024-03-08T08:46:34;10.67;;;8.97;;
73733;SDS011;62039;50.000;9.064;2024-03-08T08:49:05;11.40;;;9.90;;
73733;SDS011;62039;50.000;9.064;2024-03-08T08:51:32;12.67;;;10.97;;
73733;SDS011;62039;50.000;9.064;2024-03-08T08:54:01;11.70;;;10.47;;
73733;SDS011;62039;50.000;9.064;2024-03-08T08:56:31;10.83;;;9.47;;
73733;SDS011;62039;50.000;9.064;2024-03-08T08:58:58;13.30;;;11.33;;
73733;SDS011;62039;50.000;9.064;2024-03-08T09:01:25;12.60;;;11.23;;
73733;SDS011;62039;50.000;9.064;2024-03-08T09:03:52;13.93;;;10.60;;
73733;SDS011;62039;50.000;9.064;2024-03-08T09:06:19;14.87;;;11.97;;
73733;SDS011;62039;50.000;9.064;2024-03-08T09:08:46;12.27;;;10.27;;
73733;SDS011;62039;50.000;9.064;2024-03-08T09:11:13;11.20;;;9.97;;
73733;SDS011;62039;50.000;9.064;2024-03-08T09:13:43;9.97;;;8.87;;
73733;SDS011;62039;50.000;9.064;2024-03-08T09:16:11;10.63;;;9.10;;
73733;SDS011;62039;50.000;9.064;2024-03-08T09:18:37;10.13;;;8.73;;
73733;SDS011;62039;50.000;9.064;2024-03-08T09:21:04;9.40;;;8.23;;
73733;SDS011;62039;50.000;9.064;2024-03-08T09:23:31;10.37;;;8.87;;
73733;SDS011;62039;50.000;9.064;2024-03-08T09:25:58;11.57;;;9.10;;
73733;SDS011;62039;50.000;9.064;2024-03-08T09:28:25;13.33;;;11.37;;
73733;SDS011;62039;50.000;9.064;2024-03-08T09:30:55;10.90;;;9.30;;
73733;SDS011;62039;50.000;9.064;2024-03-08T09:33:26;10.43;;;9.03;;
73733;SDS011;62039;50.000;9.064;2024-03-08T09:35:52;10.83;;;9.40;;
73733;SDS011;62039;50.000;9.064;2024-03-08T09:38:19;11.23;;;9.07;;
73733;SDS011;62039;50.000;9.064;2024-03-08T09:40:46;11.67;;;10.23;;
73733;SDS011;62039;50.000;9.064;2024-03-08T09:43:13;10.27;;;8.90;;
73733;SDS011;62039;50.000;9.064;2024-03-08T09:45:41;8.80;;;7.90;;
73733;SDS011;62039;50.000;9.064;2024-03-08T09:48:11;9.40;;;7.90;;
73733;SDS011;62039;50.000;9.064;2024-03-08T09:50:39;8.60;;;7.43;;
73733;SDS011;62039;50.000;9.064;2024-03-08T09:53:06;10.40;;;8.83;;
73733;SDS011;62039;50.000;9.064;2024-03-08T09:55:34;9.37;;;8.37;;
73733;SDS011;62039;50.000;9.064;2024-03-08T09:58:05;8.60;;;7.50;;
73733;SDS011;62039;50.000;9.064;2024-03-08T10:00:32;10.60;;;8.67;;
73733;SDS011;62039;50.000;9.064;2024-03-08T10:03:00;10.67;;;8.47;;
73733;SDS011;62039;50.000;9.064;2024-03-08T10:05:30;9.20;;;8.20;;
73733;SDS011;62039;50.000;9.064;2024-03-08T10:07:58;9.67;;;8.50;;
73733;SDS011;62039;50.000;9.064;2024-03-08T10:10:25;7.60;;;6.80;;
73733;SDS011;62039;50.000;9.064;2024-03-08T10:12:52;8.80;;;7.90;;
73733;SDS011;62039;50.000;9.064;2024-03-08T10:15:19;11.37;;;8.83;;
73733;SDS011;62039;50.000;9.064;2024-03-08T10:17:46;9.27;;;8.27;;
73733;SDS011;62039;50.000;9.064;2024-03-08T10:20:13;10.13;;;9.03;;
73733;SDS011;62039;50.000;9.064;2024-03-08T10:22:43;9.97;;;8.97;;
73733;SDS011;62039;50.000;9.064;2024-03-08T10:25:27;9.70;;;8.67;;
73733;SDS011;62039;50.000;9.064;2024-03-08T10:27:55;11.67;;;9.93;;
73733;SDS011;62039;50.000;9.064;2024-03-08T10:30:22;11.13;;;9.93;;
73733;SDS011;62039;50.000;9.064;2024-03-08T10:32:49;12.37;;;10.63;;
73733;SDS011;62039;50.000;9.064;2024-03-08T10:35:16;11.03;;;9.67;;
73733;SDS011;62039;50.000;9.064;2024-03-08T10:37:47;13.37;;;11.00;;
73733;SDS011;62039;50.000;9.064;2024-03-08T10:40:15;11.53;;;9.30;;
73733;SDS011;62039;50.000;9.064;2024-03-08T10:42:46;9.50;;;8.60;;
73733;SDS011;62039;50.000;9.064;2024-03-08T10:45:19;9.97;;;8.87;;
73733;SDS011;62039;50.000;9.064;2024-03-08T10:48:00;10.40;;;9.30;;
73733;SDS011;62039;50.000;9.064;2024-03-08T10:50:35;10.47;;;9.37;;
73733;SDS011;62039;50.000;9.064;2024-03-08T10:53:05;10.03;;;9.03;;
73733;SDS011;62039;50.000;9.064;2024-03-08T10:55:33;9.60;;;8.60;;
73733;SDS011;62039;50.000;9.064;2024-03-08T10:58:03;9.73;;;8.57;;
73733;SDS011;62039;50.000;9.064;2024-03-08T11:00:30;9.23;;;8.23;;
73733;SDS011;62039;50.000;9.064;2024-03-08T11:02:57;10.63;;;8.87;;
73733;SDS011;62039;50.000;9.064;2024-03-08T11:05:36;10.67;;;9.57;;
73733;SDS011;62039;50.000;9.064;2024-03-08T11:08:17;12.43;;;9.63;;
73733;SDS011;62039;50.000;9.064;2024-03-08T11:10:48;8.90;;;8.00;;
73733;SDS011;62039;50.000;9.064;2024-03-08T11:16:00;10.03;;;8.93;;
73733;SDS011;62039;50.000;9.064;2024-03-08T11:18:27;8.37;;;7.57;;
73733;SDS011;62039;50.000;9.064;2024-03-08T11:20:54;8.73;;;7.83;;
73733;SDS011;62039;50.000;9.064;2024-03-08T11:23:26;11.03;;;9.27;;
73733;SDS011;62039;50.000;9.064;2024-03-08T11:25:53;9.60;;;8.60;;
73733;SDS011;62039;50.000;9.064;2024-03-08T11:28:21;8.90;;;8.00;;
73733;SDS011;62039;50.000;9.064;2024-03-08T11:33:47;9.17;;;7.97;;
73733;SDS011;62039;50.000;9.064;2024-03-08T11:36:19;10.47;;;8.50;;
73733;SDS011;62039;50.000;9.064;2024-03-08T11:38:49;9.00;;;8.10;;
73733;SDS011;62039;50.000;9.064;2024-03-08T11:41:17;10.83;;;9.53;;
73733;SDS011;62039;50.000;9.064;2024-03-08T11:43:47;9.57;;;8.57;;
73733;SDS011;62039;50.000;9.064;2024-03-08T11:46:14;9.20;;;8.10;;
73733;SDS011;62039;50.000;9.064;2024-03-08T11:48:43;8.97;;;7.70;;
73733;SDS011;62039;50.000;9.064;2024-03-08T11:51:11;10.10;;;8.23;;
73733;SDS011;62039;50.000;9.064;2024-03-08T11:53:39;9.43;;;8.10;;
73733;SDS011;62039;50.000;9.064;2024-03-08T11:56:10;9.40;;;7.37;;
73733;SDS011;62039;50.000;9.064;2024-03-08T11:58:39;8.77;;;7.97;;
73733;SDS011;62039;50.000;9.064;2024-03-08T12:01:07;8.40;;;7.50;;
73733;SDS011;62039;50.000;9.064;2024-03-08T12:03:35;9.40;;;8.13;;
73733;SDS011;62039;50.000;9.064;2024-03-08T12:06:03;9.53;;;8.53;;
73733;SDS011;62039;50.000;9.064;2024-03-08T12:08:30;8.80;;;7.90;;
73733;SDS011;62039;50.000;9.064;2024-03-08T12:10:57;8.60;;;7.63;;
73733;SDS011;62039;50.000;9.064;2024-03-08T12:13:28;8.67;;;7.33;;
73733;SDS011;62039;50.000;9.064;2024-03-08T12:15:57;8.80;;;7.90;;
73733;SDS011;62039;50.000;9.064;2024-03-08T12:18:24;8.30;;;7.50;;
73733;SDS011;62039;50.000;9.064;2024-03-08T12:20:51;9.83;;;8.63;;
73733;SDS011;62039;50.000;9.064;2024-03-08T12:23:30;8.10;;;7.30;;
73733;SDS011;62039;50.000;9.064;2024-03-08T12:25:57;9.33;;;8.23;;
73733;SDS011;62039;50.000;9.064;2024-03-08T12:28:24;8.93;;;8.03;;
73733;SDS011;62039;50.000;9.064;2024-03-08T12:30:55;8.97;;;8.07;;
73733;SDS011;62039;50.000;9.064;2024-03-08T12:33:22;8.80;;;7.93;;
73733;SDS011;62039;50.000;9.064;2024-03-08T12:35:52;8.70;;;7.80;;
73733;SDS011;62039;50.000;9.064;2024-03-08T12:38:21;9.13;;;7.97;;
73733;SDS011;62039;50.000;9.064;2024-03-08T12:40:48;8.93;;;8.07;;
73733;SDS011;62039;50.000;9.064;2024-03-08T12:43:15;8.77;;;7.37;;
73733;SDS011;62039;50.000;9.064;2024-03-08T12:45:45;9.47;;;8.50;;
73733;SDS011;62039;50.000;9.064;2024-03-08T12:48:12;10.20;;;8.73;;
73733;SDS011;62039;50.000;9.064;2024-03-08T12:50:40;9.83;;;8.83;;
73733;SDS011;62039;50.000;9.064;2024-03-08T12:53:07;9.33;;;8.37;;
73733;SDS011;62039;50.000;9.064;2024-03-08T12:55:34;9.33;;;8.00;;
73733;SDS011;62039;50.000;9.064;2024-03-08T12:58:02;8.67;;;7.87;;
73733;SDS011;62039;50.000;9.064;2024-03-08T13:00:30;10.00;;;9.00;;
73733;SDS011;62039;50.000;9.064;2024-03-08T13:02:59;9.53;;;8.53;;
73733;SDS011;62039;50.000;9.064;2024-03-08T13:05:26;9.97;;;8.97;;
73733;SDS011;62039;50.000;9.064;2024-03-08T13:07:53;10.20;;;9.20;;
73733;SDS011;62039;50.000;9.064;2024-03-08T13:10:20;9.60;;;8.67;;
73733;SDS011;62039;50.000;9.064;2024-03-08T13:12:47;9.20;;;8.30;;
73733;SDS011;62039;50.000;9.064;2024-03-08T13:15:19;9.57;;;8.03;;
73733;SDS011;62039;50.000;9.064;2024-03-08T13:17:46;8.97;;;8.07;;
73733;SDS011;62039;50.000;9.064;2024-03-08T13:20:16;9.47;;;8.57;;
73733;SDS011;62039;50.000;9.064;2024-03-08T13:22:50;11.90;;;9.63;;
73733;SDS011;62039;50.000;9.064;2024-03-08T13:25:17;10.13;;;9.13;;
73733;SDS011;62039;50.000;9.064;2024-03-08T13:27:44;9.73;;;8.73;;
73733;SDS011;62039;50.000;9.064;2024-03-08T13:30:12;8.93;;;8.03;;
73733;SDS011;62039;50.000;9.064;2024-03-08T13:32:39;9.73;;;8.73;;
73733;SDS011;62039;50.000;9.064;2024-03-08T13:35:07;10.23;;;8.80;;
73733;SDS011;62039;50.000;9.064;2024-03-08T13:37:36;9.53;;;8.47;;
73733;SDS011;62039;50.000;9.064;2024-03-08T13:40:04;10.23;;;9.13;;
73733;SDS011;62039;50.000;9.064;2024-03-08T13:42:32;9.37;;;8.37;;
73733;SDS011;62039;50.000;9.064;2024-03-08T13:44:59;9.23;;;8.33;;
73733;SDS011;62039;50.000;9.064;2024-03-08T13:47:26;8.93;;;8.07;;
73733;SDS011;62039;50.000;9.064;2024-03-08T13:49:52;9.07;;;8.00;;
73733;SDS011;62039;50.000;9.064;2024-03-08T13:52:20;11.93;;;8.70;;
73733;SDS011;62039;50.000;9.064;2024-03-08T13:54:49;10.03;;;8.93;;
73733;SDS011;62039;50.000;9.064;2024-03-08T13:57:16;9.73;;;8.73;;
73733;SDS011;62039;50.000;9.064;2024-03-08T13:59:43;9.10;;;7.97;;
73733;SDS011;62039;50.000;9.064;2024-03-08T14:02:10;9.83;;;8.83;;
73733;SDS011;62039;50.000;9.064;2024-03-08T14:04:37;9.30;;;8.30;;
73733;SDS011;62039;50.000;9.064;2024-03-08T14:07:04;9.67;;;8.63;;
73733;SDS011;62039;50.000;9.064;2024-03-08T14:09:31;9.47;;;8.17;;
73733;SDS011;62039;50.000;9.064;2024-03-08T14:12:01;9.70;;;8.43;;
73733;SDS011;62039;50.000;9.064;2024-03-08T14:14:28;7.87;;;7.07;;
73733;SDS011;62039;50.000;9.064;2024-03-08T14:16:55;8.60;;;7.80;;
73733;SDS011;62039;50.000;9.064;2024-03-08T14:19:22;8.77;;;7.57;;
73733;SDS011;62039;50.000;9.064;2024-03-08T14:21:49;9.23;;;8.33;;
73733;SDS011;62039;50.000;9.064;2024-03-08T14:24:15;10.67;;;9.57;;
73733;SDS011;62039;50.000;9.064;2024-03-08T14:26:42;9.53;;;8.10;;
73733;SDS011;62039;50.000;9.064;2024-03-08T14:29:12;8.17;;;7.23;;
73733;SDS011;62039;50.000;9.064;2024-03-08T14:31:39;9.83;;;8.00;;
73733;SDS011;62039;50.000;9.064;2024-03-08T14:34:06;9.07;;;8.17;;
73733;SDS011;62039;50.000;9.064;2024-03-08T14:36:33;7.70;;;6.90;;
73733;SDS011;62039;50.000;9.064;2024-03-08T14:39:00;11.67;;;8.47;;
73733;SDS011;62039;50.000;9.064;2024-03-08T14:41:27;8.60;;;7.60;;
73733;SDS011;62039;50.000;9.064;2024-03-08T14:43:54;8.30;;;7.50;;